createdAt,value
2019-02-03T00:00:53.573Z,0
2019-02-03T00:01:53.577Z,0
2019-02-03T00:02:53.508Z,0
2019-02-03T00:03:53.579Z,0
2019-02-03T00:04:53.548Z,0
2019-02-03T00:05:53.531Z,0
2019-02-03T00:07:03.001Z,0
2019-02-03T00:07:53.523Z,0
2019-02-03T00:08:53.515Z,0
2019-02-03T00:09:53.466Z,0
2019-02-03T00:10:53.567Z,0
2019-02-03T00:11:53.491Z,0
2019-02-03T00:12:53.526Z,0
2019-02-03T00:13:53.521Z,0
2019-02-03T00:14:53.539Z,0
2019-02-03T00:15:53.573Z,0
2019-02-03T00:16:53.498Z,0
2019-02-03T00:17:53.572Z,0
2019-02-03T00:18:53.573Z,0
2019-02-03T00:19:53.507Z,0
2019-02-03T00:20:53.519Z,0
2019-02-03T00:21:53.574Z,0
2019-02-03T00:22:53.587Z,0
2019-02-03T00:23:53.508Z,0
2019-02-03T00:24:53.578Z,0
2019-02-03T00:25:53.517Z,0
2019-02-03T00:26:53.465Z,0
2019-02-03T00:27:53.559Z,0
2019-02-03T00:28:53.485Z,0
2019-02-03T00:29:53.451Z,0
2019-02-03T00:30:53.437Z,0
2019-02-03T00:31:53.485Z,0
2019-02-03T00:32:53.561Z,0
2019-02-03T00:33:53.477Z,0
2019-02-03T00:34:53.455Z,0
2019-02-03T00:35:53.527Z,0
2019-02-03T00:36:53.568Z,0
2019-02-03T00:37:53.603Z,0
2019-02-03T00:38:53.659Z,0
2019-02-03T00:39:53.721Z,0
2019-02-03T00:40:53.560Z,0
2019-02-03T00:41:53.606Z,0
2019-02-03T00:42:53.603Z,0
2019-02-03T00:43:53.610Z,0
2019-02-03T00:44:53.550Z,0
2019-02-03T00:45:53.601Z,0
2019-02-03T00:46:53.606Z,0
2019-02-03T00:47:53.550Z,0
2019-02-03T00:48:53.559Z,0
2019-02-03T00:49:53.615Z,0
2019-02-03T00:50:53.552Z,0
2019-02-03T00:51:53.619Z,0
2019-02-03T00:52:53.549Z,0
2019-02-03T00:53:53.613Z,0
2019-02-03T00:54:53.559Z,0
2019-02-03T00:55:53.670Z,0
2019-02-03T00:56:53.622Z,0
2019-02-03T00:57:53.611Z,0
2019-02-03T00:58:53.568Z,0
2019-02-03T00:59:53.603Z,0
2019-02-03T01:00:53.538Z,0
2019-02-03T01:01:53.626Z,0
2019-02-03T01:02:53.644Z,0
2019-02-03T01:03:53.628Z,0
2019-02-03T01:04:53.618Z,0
2019-02-03T01:05:53.608Z,0
2019-02-03T01:06:53.543Z,0
2019-02-03T01:07:53.549Z,0
2019-02-03T01:08:53.601Z,0
2019-02-03T01:09:53.623Z,0
2019-02-03T01:10:53.552Z,0
2019-02-03T01:11:53.557Z,0
2019-02-03T01:12:53.654Z,0
2019-02-03T01:13:53.551Z,0
2019-02-03T01:14:53.550Z,0
2019-02-03T01:15:53.619Z,0
2019-02-03T01:16:53.650Z,0
2019-02-03T01:17:53.651Z,0
2019-02-03T01:18:53.571Z,0
2019-02-03T01:19:53.574Z,0
2019-02-03T01:20:53.578Z,0
2019-02-03T01:21:53.625Z,0
2019-02-03T01:22:53.639Z,0
2019-02-03T01:23:53.702Z,0
2019-02-03T01:24:53.643Z,0
2019-02-03T01:25:53.553Z,0
2019-02-03T01:26:53.623Z,0
2019-02-03T01:27:53.576Z,0
2019-02-03T01:28:53.622Z,0
2019-02-03T01:29:53.561Z,0
2019-02-03T01:30:53.631Z,0
2019-02-03T01:31:53.785Z,0
2019-02-03T01:32:53.564Z,0
2019-02-03T01:33:53.641Z,0
2019-02-03T01:34:53.564Z,0
2019-02-03T01:35:53.627Z,0
2019-02-03T01:36:53.638Z,0
2019-02-03T01:37:53.566Z,0
2019-02-03T01:38:53.564Z,0
2019-02-03T01:39:53.631Z,0
2019-02-03T01:40:53.631Z,0
2019-02-03T01:41:53.584Z,0
2019-02-03T01:42:53.643Z,0
2019-02-03T01:43:53.561Z,0
2019-02-03T01:44:53.637Z,0
2019-02-03T01:45:53.647Z,0
2019-02-03T01:46:53.655Z,0
2019-02-03T01:47:53.588Z,0
2019-02-03T01:48:53.576Z,0
2019-02-03T01:49:53.659Z,0
2019-02-03T01:50:53.575Z,0
2019-02-03T01:51:53.652Z,0
2019-02-03T01:52:53.578Z,0
2019-02-03T01:53:53.582Z,0
2019-02-03T01:54:53.701Z,0
2019-02-03T01:55:53.638Z,0
2019-02-03T01:56:53.525Z,0
2019-02-03T01:57:53.639Z,0
2019-02-03T01:58:53.554Z,0
2019-02-03T01:59:53.553Z,0
2019-02-03T02:00:53.570Z,0
2019-02-03T02:01:53.520Z,0
2019-02-03T02:02:53.652Z,0
2019-02-03T02:03:53.549Z,0
2019-02-03T02:04:53.648Z,0
2019-02-03T02:05:53.662Z,0
2019-02-03T02:06:53.608Z,0
2019-02-03T02:07:53.601Z,0
2019-02-03T02:08:53.589Z,0
2019-02-03T02:09:53.556Z,0
2019-02-03T02:10:53.670Z,0
2019-02-03T02:11:53.551Z,0
2019-02-03T02:12:53.750Z,0
2019-02-03T02:13:53.673Z,0
2019-02-03T02:14:53.594Z,0
2019-02-03T02:15:53.615Z,0
2019-02-03T02:16:53.596Z,0
2019-02-03T02:17:53.621Z,0
2019-02-03T02:18:53.669Z,0
2019-02-03T02:19:53.599Z,0
2019-02-03T02:20:53.682Z,0
2019-02-03T02:21:53.602Z,0
2019-02-03T02:22:53.617Z,0
2019-02-03T02:23:53.676Z,0
2019-02-03T02:24:53.659Z,0
2019-02-03T02:25:53.675Z,0
2019-02-03T02:26:53.680Z,0
2019-02-03T02:27:53.691Z,0
2019-02-03T02:28:53.644Z,0
2019-02-03T02:29:53.618Z,0
2019-02-03T02:30:53.693Z,0
2019-02-03T02:31:53.645Z,0
2019-02-03T02:32:53.631Z,0
2019-02-03T02:33:53.681Z,0
2019-02-03T02:34:53.626Z,0
2019-02-03T02:35:53.545Z,0
2019-02-03T02:36:53.663Z,0
2019-02-03T02:38:05.652Z,0
2019-02-03T02:38:53.573Z,0
2019-02-03T02:39:53.616Z,0
2019-02-03T02:40:53.582Z,0
2019-02-03T02:41:53.645Z,0
2019-02-03T02:42:53.743Z,0
2019-02-03T02:43:53.674Z,0
2019-02-03T02:44:53.595Z,0
2019-02-03T02:45:53.553Z,0
2019-02-03T02:46:53.532Z,0
2019-02-03T02:47:53.632Z,0
2019-02-03T02:48:53.562Z,0
2019-02-03T02:49:53.644Z,0
2019-02-03T02:50:53.543Z,0
2019-02-03T02:51:53.581Z,0
2019-02-03T02:52:53.664Z,0
2019-02-03T02:53:53.576Z,0
2019-02-03T02:54:53.536Z,0
2019-02-03T02:55:53.577Z,0
2019-02-03T02:56:53.686Z,0
2019-02-03T02:57:53.630Z,0
2019-02-03T02:58:53.627Z,0
2019-02-03T02:59:53.687Z,0
2019-02-03T03:00:53.623Z,0
2019-02-03T03:01:53.689Z,0
2019-02-03T03:02:53.691Z,0
2019-02-03T03:03:53.618Z,0
2019-02-03T03:04:53.692Z,0
2019-02-03T03:05:53.650Z,0
2019-02-03T03:06:53.708Z,0
2019-02-03T03:07:53.707Z,0
2019-02-03T03:08:53.655Z,0
2019-02-03T03:09:53.631Z,0
2019-02-03T03:10:53.657Z,0
2019-02-03T03:11:53.656Z,0
2019-02-03T03:12:53.699Z,0
2019-02-03T03:13:53.729Z,0
2019-02-03T03:14:53.666Z,0
2019-02-03T03:15:53.625Z,0
2019-02-03T03:16:53.638Z,0
2019-02-03T03:17:53.710Z,0
2019-02-03T03:18:53.762Z,0
2019-02-03T03:19:53.710Z,0
2019-02-03T03:20:53.631Z,0
2019-02-03T03:21:53.702Z,0
2019-02-03T03:22:53.631Z,0
2019-02-03T03:23:53.709Z,0
2019-02-03T03:24:53.644Z,0
2019-02-03T03:25:53.728Z,0
2019-02-03T03:26:53.682Z,0
2019-02-03T03:27:53.724Z,0
2019-02-03T03:28:53.748Z,0
2019-02-03T03:29:53.752Z,0
2019-02-03T03:30:53.697Z,0
2019-02-03T03:31:53.674Z,0
2019-02-03T03:32:53.726Z,0
2019-02-03T03:33:53.711Z,0
2019-02-03T03:34:53.670Z,0
2019-02-03T03:35:53.654Z,0
2019-02-03T03:36:53.658Z,0
2019-02-03T03:37:53.621Z,0
2019-02-03T03:38:53.672Z,0
2019-02-03T03:39:53.609Z,0
2019-02-03T03:40:53.669Z,0
2019-02-03T03:41:53.698Z,0
2019-02-03T03:42:53.702Z,0
2019-02-03T03:43:53.641Z,0
2019-02-03T03:44:53.703Z,0
2019-02-03T03:45:53.656Z,0
2019-02-03T03:46:53.720Z,0
2019-02-03T03:47:53.656Z,0
2019-02-03T03:48:53.653Z,0
2019-02-03T03:49:53.739Z,0
2019-02-03T03:50:53.659Z,0
2019-02-03T03:51:53.724Z,0
2019-02-03T03:52:53.659Z,0
2019-02-03T03:53:53.786Z,0
2019-02-03T03:54:53.734Z,0
2019-02-03T03:55:53.648Z,0
2019-02-03T03:56:53.720Z,0
2019-02-03T03:57:53.728Z,0
2019-02-03T03:58:53.611Z,0
2019-02-03T03:59:53.676Z,0
2019-02-03T04:00:53.725Z,0
2019-02-03T04:01:53.768Z,0
2019-02-03T04:02:53.650Z,0
2019-02-03T04:03:53.721Z,0
2019-02-03T04:04:53.730Z,0
2019-02-03T04:05:53.696Z,0
2019-02-03T04:06:53.706Z,0
2019-02-03T04:07:53.750Z,0
2019-02-03T04:08:53.692Z,0
2019-02-03T04:09:53.685Z,0
2019-02-03T04:10:53.648Z,0
2019-02-03T04:11:53.689Z,0
2019-02-03T04:12:53.674Z,0
2019-02-03T04:13:53.708Z,0
2019-02-03T04:14:53.766Z,0
2019-02-03T04:15:53.762Z,0
2019-02-03T04:16:53.852Z,0
2019-02-03T04:17:53.643Z,0
2019-02-03T04:18:53.698Z,0
2019-02-03T04:19:53.690Z,0
2019-02-03T04:20:53.706Z,0
2019-02-03T04:21:53.705Z,0
2019-02-03T04:22:53.686Z,0
2019-02-03T04:23:53.689Z,0
2019-02-03T04:24:53.766Z,0
2019-02-03T04:25:53.684Z,0
2019-02-03T04:26:53.753Z,0
2019-02-03T04:27:53.809Z,0
2019-02-03T04:28:53.751Z,0
2019-02-03T04:29:53.755Z,0
2019-02-03T04:30:53.752Z,0
2019-02-03T04:31:53.679Z,0
2019-02-03T04:32:53.753Z,0
2019-02-03T04:33:53.678Z,0
2019-02-03T04:34:53.758Z,0
2019-02-03T04:35:53.708Z,0
2019-02-03T04:36:53.726Z,0
2019-02-03T04:37:53.771Z,0
2019-02-03T04:38:58.088Z,0
2019-02-03T04:39:53.792Z,0
2019-02-03T04:40:53.697Z,0
2019-02-03T04:41:53.723Z,0
2019-02-03T04:42:53.698Z,0
2019-02-03T04:43:53.719Z,0
2019-02-03T04:44:53.794Z,0
2019-02-03T04:45:53.747Z,0
2019-02-03T04:46:53.714Z,0
2019-02-03T04:47:53.629Z,0
2019-02-03T04:48:53.761Z,0
2019-02-03T04:49:53.625Z,0
2019-02-03T04:50:53.746Z,0
2019-02-03T04:51:53.667Z,0
2019-02-03T04:52:53.654Z,0
2019-02-03T04:53:53.722Z,0
2019-02-03T04:54:53.718Z,0
2019-02-03T04:55:53.693Z,0
2019-02-03T04:56:53.729Z,0
2019-02-03T04:57:53.752Z,0
2019-02-03T04:58:53.644Z,0
2019-02-03T04:59:53.713Z,0
2019-02-03T05:00:53.730Z,0
2019-02-03T05:01:53.728Z,0
2019-02-03T05:02:53.756Z,0
2019-02-03T05:03:53.748Z,0
2019-02-03T05:04:53.685Z,0
2019-02-03T05:05:53.757Z,0
2019-02-03T05:06:53.741Z,0
2019-02-03T05:07:53.732Z,0
2019-02-03T05:08:53.800Z,0
2019-02-03T05:09:53.813Z,0
2019-02-03T05:10:53.736Z,0
2019-02-03T05:11:53.783Z,0
2019-02-03T05:12:53.798Z,0
2019-02-03T05:13:53.730Z,0
2019-02-03T05:14:53.719Z,0
2019-02-03T05:15:53.802Z,0
2019-02-03T05:16:53.747Z,0
2019-02-03T05:17:53.830Z,0
2019-02-03T05:18:53.811Z,0
2019-02-03T05:19:53.836Z,0
2019-02-03T05:20:53.802Z,0
2019-02-03T05:21:53.816Z,0
2019-02-03T05:22:53.740Z,0
2019-02-03T05:23:53.821Z,0
2019-02-03T05:24:53.770Z,0
2019-02-03T05:25:54.545Z,0
2019-02-03T05:26:53.675Z,0
2019-02-03T05:27:53.782Z,0
2019-02-03T05:28:53.720Z,0
2019-02-03T05:29:53.741Z,0
2019-02-03T05:30:53.795Z,0
2019-02-03T05:31:53.721Z,0
2019-02-03T05:32:53.779Z,0
2019-02-03T05:33:53.921Z,0
2019-02-03T05:34:53.784Z,0
2019-02-03T05:35:53.763Z,0
2019-02-03T05:36:53.728Z,0
2019-02-03T05:37:53.803Z,0
2019-02-03T05:38:55.318Z,0
2019-02-03T05:39:53.800Z,0
2019-02-03T05:40:53.731Z,0
2019-02-03T05:41:53.810Z,0
2019-02-03T05:42:53.729Z,0
2019-02-03T05:43:53.734Z,0
2019-02-03T05:44:53.815Z,0
2019-02-03T05:45:53.736Z,0
2019-02-03T05:46:53.807Z,0
2019-02-03T05:47:53.733Z,0
2019-02-03T05:48:53.779Z,0
2019-02-03T05:49:53.814Z,0
2019-02-03T05:50:53.748Z,0
2019-02-03T05:51:53.806Z,0
2019-02-03T05:52:53.855Z,0
2019-02-03T05:53:53.742Z,0
2019-02-03T05:54:53.752Z,0
2019-02-03T05:55:53.810Z,0
2019-02-03T05:56:53.802Z,0
2019-02-03T05:57:53.720Z,0
2019-02-03T05:58:53.777Z,0
2019-02-03T05:59:53.711Z,0
2019-02-03T06:00:53.714Z,0
2019-02-03T06:01:53.832Z,0
2019-02-03T06:02:53.855Z,0
2019-02-03T06:03:53.768Z,0
2019-02-03T06:04:53.778Z,0
2019-02-03T06:05:53.738Z,0
2019-02-03T06:06:53.817Z,0
2019-02-03T06:07:53.814Z,0
2019-02-03T06:08:53.710Z,0
2019-02-03T06:09:53.725Z,0
2019-02-03T06:10:53.721Z,0
2019-02-03T06:11:53.813Z,0
2019-02-03T06:12:53.780Z,0
2019-02-03T06:13:53.702Z,0
2019-02-03T06:14:53.699Z,0
2019-02-03T06:15:53.732Z,0
2019-02-03T06:16:53.693Z,0
2019-02-03T06:17:53.775Z,0
2019-02-03T06:18:53.808Z,0
2019-02-03T06:19:53.805Z,0
2019-02-03T06:20:53.783Z,0
2019-02-03T06:21:53.826Z,0
2019-02-03T06:22:53.684Z,0
2019-02-03T06:23:53.760Z,4
2019-02-03T06:24:53.685Z,4
2019-02-03T06:25:53.813Z,4
2019-02-03T06:26:53.849Z,4
2019-02-03T06:27:53.838Z,4
2019-02-03T06:28:53.790Z,4
2019-02-03T06:29:53.829Z,8
2019-02-03T06:30:53.855Z,8
2019-02-03T06:31:53.798Z,8
2019-02-03T06:32:53.835Z,12
2019-02-03T06:33:53.778Z,12
2019-02-03T06:34:53.795Z,12
2019-02-03T06:35:53.798Z,20
2019-02-03T06:36:53.791Z,24
2019-02-03T06:37:53.763Z,28
2019-02-03T06:38:53.846Z,40
2019-02-03T06:39:53.766Z,44
2019-02-03T06:40:53.767Z,56
2019-02-03T06:41:53.811Z,60
2019-02-03T06:42:53.720Z,56
2019-02-03T06:43:53.808Z,56
2019-02-03T06:44:53.725Z,68
2019-02-03T06:45:53.744Z,72
2019-02-03T06:46:53.824Z,80
2019-02-03T06:47:53.844Z,96
2019-02-03T06:48:53.864Z,124
2019-02-03T06:49:53.870Z,140
2019-02-03T06:50:53.846Z,144
2019-02-03T06:51:53.912Z,144
2019-02-03T06:52:53.812Z,160
2019-02-03T06:53:53.867Z,176
2019-02-03T06:54:53.797Z,204
2019-02-03T06:55:53.888Z,236
2019-02-03T06:56:53.813Z,268
2019-02-03T06:57:53.808Z,268
2019-02-03T06:58:53.809Z,268
2019-02-03T06:59:53.796Z,300
2019-02-03T07:00:53.872Z,336
2019-02-03T07:01:53.810Z,352
2019-02-03T07:02:53.870Z,344
2019-02-03T07:03:53.866Z,336
2019-02-03T07:04:53.883Z,376
2019-02-03T07:05:53.873Z,420
2019-02-03T07:06:53.871Z,460
2019-02-03T07:07:53.873Z,516
2019-02-03T07:08:53.798Z,600
2019-02-03T07:10:00.344Z,664
2019-02-03T07:10:53.874Z,748
2019-02-03T07:11:53.800Z,828
2019-02-03T07:12:53.805Z,864
2019-02-03T07:13:53.802Z,828
2019-02-03T07:14:53.885Z,804
2019-02-03T07:15:53.805Z,744
2019-02-03T07:16:53.910Z,736
2019-02-03T07:17:53.890Z,724
2019-02-03T07:18:53.930Z,756
2019-02-03T07:19:53.829Z,784
2019-02-03T07:20:53.890Z,816
2019-02-03T07:21:53.882Z,704
2019-02-03T07:22:53.828Z,772
2019-02-03T07:23:53.808Z,904
2019-02-03T07:24:53.890Z,1012
2019-02-03T07:25:53.883Z,1052
2019-02-03T07:26:53.874Z,1100
2019-02-03T07:27:53.798Z,992
2019-02-03T07:28:53.895Z,892
2019-02-03T07:29:53.913Z,752
2019-02-03T07:30:53.801Z,760
2019-02-03T07:31:53.803Z,912
2019-02-03T07:32:53.878Z,1132
2019-02-03T07:33:53.882Z,1548
2019-02-03T07:34:53.887Z,1788
2019-02-03T07:35:53.792Z,1724
2019-02-03T07:36:53.806Z,1960
2019-02-03T07:37:53.811Z,2104
2019-02-03T07:38:53.881Z,2164
2019-02-03T07:39:53.807Z,2268
2019-02-03T07:40:53.813Z,2220
2019-02-03T07:41:53.906Z,2000
2019-02-03T07:42:53.820Z,1780
2019-02-03T07:43:53.888Z,1724
2019-02-03T07:44:53.844Z,1588
2019-02-03T07:45:53.809Z,1520
2019-02-03T07:46:53.889Z,1464
2019-02-03T07:47:53.881Z,1284
2019-02-03T07:48:53.796Z,1228
2019-02-03T07:49:53.818Z,1512
2019-02-03T07:50:53.881Z,1832
2019-02-03T07:51:53.860Z,1864
2019-02-03T07:52:53.792Z,2008
2019-02-03T07:53:53.837Z,2352
2019-02-03T07:54:53.888Z,2572
2019-02-03T07:55:53.894Z,2828
2019-02-03T07:56:53.891Z,3296
2019-02-03T07:57:53.895Z,3100
2019-02-03T07:58:53.901Z,2888
2019-02-03T07:59:53.808Z,3168
2019-02-03T08:00:53.828Z,3316
2019-02-03T08:01:53.898Z,2480
2019-02-03T08:02:53.824Z,2112
2019-02-03T08:03:53.901Z,2480
2019-02-03T08:04:53.821Z,2976
2019-02-03T08:05:53.838Z,2852
2019-02-03T08:06:53.837Z,2980
2019-02-03T08:07:53.914Z,3116
2019-02-03T08:08:53.923Z,3476
2019-02-03T08:09:53.859Z,3932
2019-02-03T08:10:53.911Z,4352
2019-02-03T08:11:53.913Z,4748
2019-02-03T08:12:53.847Z,4324
2019-02-03T08:13:53.810Z,3916
2019-02-03T08:14:53.854Z,3360
2019-02-03T08:15:53.850Z,4020
2019-02-03T08:16:53.938Z,4644
2019-02-03T08:17:53.938Z,4708
2019-02-03T08:18:53.863Z,4380
2019-02-03T08:19:54.002Z,4400
2019-02-03T08:20:53.849Z,5292
2019-02-03T08:21:53.926Z,5824
2019-02-03T08:22:53.850Z,5648
2019-02-03T08:23:53.924Z,5128
2019-02-03T08:24:53.852Z,5828
2019-02-03T08:25:53.851Z,6176
2019-02-03T08:26:53.932Z,6248
2019-02-03T08:27:53.853Z,5600
2019-02-03T08:28:53.925Z,4580
2019-02-03T08:29:53.852Z,5072
2019-02-03T08:30:53.954Z,5520
2019-02-03T08:31:53.875Z,6088
2019-02-03T08:32:53.822Z,6128
2019-02-03T08:33:53.928Z,5912
2019-02-03T08:34:53.860Z,6644
2019-02-03T08:35:53.934Z,8200
2019-02-03T08:36:53.936Z,7976
2019-02-03T08:37:53.862Z,7476
2019-02-03T08:38:53.863Z,8136
2019-02-03T08:39:53.873Z,8424
2019-02-03T08:40:54.027Z,7792
2019-02-03T08:41:53.934Z,7496
2019-02-03T08:42:55.801Z,7544
2019-02-03T08:43:53.865Z,7320
2019-02-03T08:44:53.946Z,7144
2019-02-03T08:45:53.867Z,6748
2019-02-03T08:46:53.830Z,6904
2019-02-03T08:47:53.905Z,7436
2019-02-03T08:48:53.792Z,7912
2019-02-03T08:49:53.863Z,8896
2019-02-03T08:50:53.905Z,8592
2019-02-03T08:51:53.869Z,8932
2019-02-03T08:52:53.859Z,8756
2019-02-03T08:53:53.890Z,8048
2019-02-03T08:54:58.400Z,7804
2019-02-03T08:55:53.800Z,7184
2019-02-03T08:56:53.910Z,6936
2019-02-03T08:57:53.801Z,7356
2019-02-03T08:58:53.833Z,7416
2019-02-03T08:59:53.850Z,8032
2019-02-03T09:00:53.861Z,8560
2019-02-03T09:01:53.824Z,8812
2019-02-03T09:02:53.803Z,8712
2019-02-03T09:03:53.900Z,8276
2019-02-03T09:04:53.815Z,7324
2019-02-03T09:05:53.804Z,6880
2019-02-03T09:06:53.897Z,6792
2019-02-03T09:07:53.952Z,6436
2019-02-03T09:08:54.010Z,5984
2019-02-03T09:09:53.954Z,6028
2019-02-03T09:10:54.070Z,6500
2019-02-03T09:11:53.958Z,6784
2019-02-03T09:12:53.891Z,6620
2019-02-03T09:13:55.754Z,6480
2019-02-03T09:14:53.889Z,5968
2019-02-03T09:15:53.894Z,5956
2019-02-03T09:16:53.948Z,6172
2019-02-03T09:17:53.882Z,6428
2019-02-03T09:18:53.915Z,6532
2019-02-03T09:19:53.881Z,6276
2019-02-03T09:20:55.920Z,5988
2019-02-03T09:21:53.953Z,6392
2019-02-03T09:22:53.885Z,6296
2019-02-03T09:23:53.878Z,6592
2019-02-03T09:24:53.954Z,6768
2019-02-03T09:25:53.868Z,7016
2019-02-03T09:26:53.970Z,7488
2019-02-03T09:27:53.966Z,7572
2019-02-03T09:28:53.894Z,7368
2019-02-03T09:29:53.904Z,7404
2019-02-03T09:30:53.984Z,8948
2019-02-03T09:31:53.900Z,10028
2019-02-03T09:32:53.973Z,8488
2019-02-03T09:33:53.902Z,7788
2019-02-03T09:34:53.902Z,9484
2019-02-03T09:35:53.979Z,9228
2019-02-03T09:36:53.918Z,8164
2019-02-03T09:37:53.981Z,8320
2019-02-03T09:38:54.097Z,8016
2019-02-03T09:39:53.904Z,7732
2019-02-03T09:41:00.165Z,7752
2019-02-03T09:41:53.907Z,7844
2019-02-03T09:42:53.920Z,8340
2019-02-03T09:43:53.907Z,8900
2019-02-03T09:44:53.903Z,8372
2019-02-03T09:45:53.909Z,8148
2019-02-03T09:46:53.908Z,8296
2019-02-03T09:47:53.981Z,9616
2019-02-03T09:48:53.923Z,10024
2019-02-03T09:49:53.941Z,9460
2019-02-03T09:50:53.992Z,9452
2019-02-03T09:51:53.914Z,9896
2019-02-03T09:52:53.927Z,11072
2019-02-03T09:53:53.912Z,10556
2019-02-03T09:54:54.010Z,9528
2019-02-03T09:55:53.997Z,9668
2019-02-03T09:56:53.988Z,10588
2019-02-03T09:57:53.918Z,10908
2019-02-03T09:58:53.994Z,10352
2019-02-03T09:59:53.919Z,10268
2019-02-03T10:00:53.956Z,11208
2019-02-03T10:01:53.916Z,11088
2019-02-03T10:02:53.922Z,10312
2019-02-03T10:03:53.923Z,10428
2019-02-03T10:04:53.993Z,10116
2019-02-03T10:05:53.922Z,10180
2019-02-03T10:06:53.935Z,9008
2019-02-03T10:07:53.920Z,9248
2019-02-03T10:08:54.004Z,9536
2019-02-03T10:09:53.922Z,9004
2019-02-03T10:10:53.993Z,9304
2019-02-03T10:11:53.930Z,9884
2019-02-03T10:12:53.984Z,10236
2019-02-03T10:13:53.928Z,9976
2019-02-03T10:14:54.006Z,9768
2019-02-03T10:15:53.932Z,9816
2019-02-03T10:16:53.857Z,10292
2019-02-03T10:17:53.916Z,10892
2019-02-03T10:18:53.879Z,11096
2019-02-03T10:19:53.906Z,11512
2019-02-03T10:20:53.855Z,12164
2019-02-03T10:21:53.866Z,12700
2019-02-03T10:22:53.916Z,12364
2019-02-03T10:23:53.828Z,11616
2019-02-03T10:24:53.957Z,11564
2019-02-03T10:25:55.433Z,11448
2019-02-03T10:26:53.939Z,11708
2019-02-03T10:27:54.047Z,11476
2019-02-03T10:28:54.007Z,11232
2019-02-03T10:29:53.963Z,11284
2019-02-03T10:30:54.016Z,11252
2019-02-03T10:31:54.024Z,11572
2019-02-03T10:32:54.008Z,10868
2019-02-03T10:33:53.954Z,10764
2019-02-03T10:34:54.019Z,10520
2019-02-03T10:35:54.021Z,11104
2019-02-03T10:36:53.922Z,10960
2019-02-03T10:37:53.997Z,11056
2019-02-03T10:38:54.104Z,12284
2019-02-03T10:39:53.997Z,12308
2019-02-03T10:40:53.885Z,12096
2019-02-03T10:41:53.918Z,12068
2019-02-03T10:42:53.882Z,13348
2019-02-03T10:43:56.282Z,13396
2019-02-03T10:44:53.934Z,12644
2019-02-03T10:45:53.945Z,13292
2019-02-03T10:46:53.951Z,14356
2019-02-03T10:47:54.080Z,15296
2019-02-03T10:48:53.954Z,16312
2019-02-03T10:49:53.914Z,18792
2019-02-03T10:50:53.957Z,19752
2019-02-03T10:51:54.022Z,20144
2019-02-03T10:52:54.038Z,19032
2019-02-03T10:53:53.958Z,16984
2019-02-03T10:54:55.968Z,15484
2019-02-03T10:55:53.957Z,14324
2019-02-03T10:56:53.963Z,13848
2019-02-03T10:57:53.957Z,13616
2019-02-03T10:58:54.025Z,13040
2019-02-03T10:59:53.973Z,13072
2019-02-03T11:00:55.174Z,12720
2019-02-03T11:01:54.038Z,13268
2019-02-03T11:02:54.034Z,13216
2019-02-03T11:03:53.966Z,14472
2019-02-03T11:04:54.038Z,18148
2019-02-03T11:05:53.963Z,20496
2019-02-03T11:06:54.034Z,21036
2019-02-03T11:07:54.034Z,20920
2019-02-03T11:08:53.972Z,20488
2019-02-03T11:09:54.036Z,20316
2019-02-03T11:10:53.979Z,21212
2019-02-03T11:11:53.968Z,23744
2019-02-03T11:12:53.976Z,25472
2019-02-03T11:13:53.970Z,26528
2019-02-03T11:14:54.046Z,25536
2019-02-03T11:15:53.987Z,25472
2019-02-03T11:16:54.042Z,24640
2019-02-03T11:17:54.041Z,24448
2019-02-03T11:18:53.977Z,23552
2019-02-03T11:19:54.052Z,23680
2019-02-03T11:20:53.970Z,22752
2019-02-03T11:21:54.046Z,20348
2019-02-03T11:22:54.054Z,19744
2019-02-03T11:23:53.974Z,18528
2019-02-03T11:24:54.058Z,17092
2019-02-03T11:25:53.981Z,15132
2019-02-03T11:26:54.044Z,15156
2019-02-03T11:27:53.971Z,16128
2019-02-03T11:28:54.007Z,15604
2019-02-03T11:29:54.045Z,13896
2019-02-03T11:30:53.988Z,13808
2019-02-03T11:31:54.519Z,14772
2019-02-03T11:33:04.715Z,14884
2019-02-03T11:33:54.042Z,14420
2019-02-03T11:34:53.972Z,14588
2019-02-03T11:35:54.013Z,14360
2019-02-03T11:36:54.043Z,15012
2019-02-03T11:37:53.987Z,16948
2019-02-03T11:38:54.061Z,16228
2019-02-03T11:39:53.990Z,14736
2019-02-03T11:40:53.996Z,13952
2019-02-03T11:41:54.063Z,13548
2019-02-03T11:42:54.006Z,13768
2019-02-03T11:43:53.992Z,12996
2019-02-03T11:44:54.065Z,11544
2019-02-03T11:45:53.994Z,11460
2019-02-03T11:46:53.994Z,13308
2019-02-03T11:47:54.065Z,13184
2019-02-03T11:48:53.997Z,11900
2019-02-03T11:49:54.067Z,12256
2019-02-03T11:50:54.025Z,12672
2019-02-03T11:51:53.999Z,14424
2019-02-03T11:52:54.064Z,15972
2019-02-03T11:53:53.997Z,17076
2019-02-03T11:54:54.071Z,15928
2019-02-03T11:55:54.078Z,16400
2019-02-03T11:56:54.011Z,17100
2019-02-03T11:57:53.958Z,15108
2019-02-03T11:58:54.093Z,13504
2019-02-03T11:59:54.074Z,13716
2019-02-03T12:00:54.074Z,14924
2019-02-03T12:01:53.999Z,15824
2019-02-03T12:02:53.999Z,17852
2019-02-03T12:03:54.092Z,22016
2019-02-03T12:04:54.003Z,23168
2019-02-03T12:05:54.003Z,23328
2019-02-03T12:06:54.011Z,25472
2019-02-03T12:07:54.060Z,27648
2019-02-03T12:08:54.071Z,25792
2019-02-03T12:09:54.068Z,24096
2019-02-03T12:10:54.019Z,24384
2019-02-03T12:12:01.155Z,25920
2019-02-03T12:12:53.984Z,27936
2019-02-03T12:13:54.001Z,26528
2019-02-03T12:14:54.000Z,28000
2019-02-03T12:15:54.074Z,23872
2019-02-03T12:16:54.091Z,22496
2019-02-03T12:17:54.062Z,21984
2019-02-03T12:18:54.024Z,21328
2019-02-03T12:19:54.022Z,20272
2019-02-03T12:20:54.065Z,19900
2019-02-03T12:21:54.074Z,19356
2019-02-03T12:22:53.986Z,18416
2019-02-03T12:23:54.076Z,18156
2019-02-03T12:24:54.064Z,17044
2019-02-03T12:25:53.979Z,17648
2019-02-03T12:26:54.081Z,16668
2019-02-03T12:27:54.014Z,16552
2019-02-03T12:28:54.022Z,14716
2019-02-03T12:29:54.095Z,14540
2019-02-03T12:30:54.030Z,16208
2019-02-03T12:31:54.088Z,16436
2019-02-03T12:32:54.051Z,15180
2019-02-03T12:33:54.000Z,13304
2019-02-03T12:34:54.094Z,14084
2019-02-03T12:35:54.054Z,15512
2019-02-03T12:36:54.089Z,14816
2019-02-03T12:37:54.088Z,17348
2019-02-03T12:38:54.054Z,21640
2019-02-03T12:39:54.110Z,24832
2019-02-03T12:40:54.091Z,27808
2019-02-03T12:41:54.001Z,29888
2019-02-03T12:42:54.004Z,32128
2019-02-03T12:43:53.990Z,33696
2019-02-03T12:44:54.092Z,31168
2019-02-03T12:45:54.018Z,28160
2019-02-03T12:46:54.007Z,25664
2019-02-03T12:47:54.041Z,27072
2019-02-03T12:48:54.114Z,27776
2019-02-03T12:49:54.087Z,27936
2019-02-03T12:50:54.071Z,24672
2019-02-03T12:51:54.118Z,24352
2019-02-03T12:52:54.041Z,24864
2019-02-03T12:53:53.971Z,24960
2019-02-03T12:54:53.975Z,25056
2019-02-03T12:55:53.996Z,25024
2019-02-03T12:56:53.981Z,27040
2019-02-03T12:57:54.044Z,23552
2019-02-03T12:58:54.042Z,23168
2019-02-03T12:59:54.044Z,29280
2019-02-03T13:00:54.113Z,29056
2019-02-03T13:01:54.041Z,26752
2019-02-03T13:02:54.121Z,26496
2019-02-03T13:03:54.046Z,25920
2019-02-03T13:04:54.051Z,21104
2019-02-03T13:05:54.050Z,28448
2019-02-03T13:06:54.046Z,20024
2019-02-03T13:07:54.111Z,21372
2019-02-03T13:08:54.103Z,22720
2019-02-03T13:09:54.019Z,26016
2019-02-03T13:10:54.003Z,25888
2019-02-03T13:11:54.026Z,29024
2019-02-03T13:12:54.113Z,29120
2019-02-03T13:13:54.114Z,38912
2019-02-03T13:14:54.130Z,27040
2019-02-03T13:15:54.116Z,25696
2019-02-03T13:16:54.078Z,31232
2019-02-03T13:17:54.129Z,34720
2019-02-03T13:18:54.059Z,28448
2019-02-03T13:19:54.127Z,40512
2019-02-03T13:20:54.072Z,29472
2019-02-03T13:21:54.097Z,45728
2019-02-03T13:22:54.132Z,43136
2019-02-03T13:23:54.139Z,29600
2019-02-03T13:24:54.058Z,32864
2019-02-03T13:25:54.134Z,37440
2019-02-03T13:26:54.063Z,46624
2019-02-03T13:27:54.083Z,32352
2019-02-03T13:28:54.113Z,34112
2019-02-03T13:29:54.034Z,48832
2019-02-03T13:30:54.002Z,36000
2019-02-03T13:31:54.097Z,28768
2019-02-03T13:32:54.018Z,26816
2019-02-03T13:33:54.002Z,27808
2019-02-03T13:34:54.133Z,26592
2019-02-03T13:35:53.999Z,22464
2019-02-03T13:36:54.072Z,17676
2019-02-03T13:37:55.526Z,15936
2019-02-03T13:38:54.014Z,17404
2019-02-03T13:39:54.125Z,18992
2019-02-03T13:40:54.121Z,20100
2019-02-03T13:41:54.133Z,20216
2019-02-03T13:42:54.047Z,19408
2019-02-03T13:43:54.088Z,19288
2019-02-03T13:44:54.130Z,19460
2019-02-03T13:45:54.097Z,19140
2019-02-03T13:46:54.140Z,18440
2019-02-03T13:47:54.155Z,18264
2019-02-03T13:48:54.088Z,17972
2019-02-03T13:49:54.122Z,17196
2019-02-03T13:50:54.948Z,15792
2019-02-03T13:51:54.107Z,15184
2019-02-03T13:52:54.082Z,15868